sensor_id;sensor_type;location;lat;lon;timestamp;pressure;altitude;pressure_sealevel;temperature;humidity
22389;BME280;11362;48.102;11.620;2024-02-26T00:00:32;93489.56;;;24.54;34.45
22389;BME280;11362;48.102;11.620;2024-02-26T00:02:57;93484.81;;;24.55;34.53
22389;BME280;11362;48.102;11.620;2024-02-26T00:05:22;93482.03;;;24.55;34.62
22389;BME280;11362;48.102;11.620;2024-02-26T00:07:48;93485.59;;;24.55;34.51
22389;BME280;11362;48.102;11.620;2024-02-26T00:10:13;93480.50;;;24.54;34.63
22389;BME280;11362;48.102;11.620;2024-02-26T00:12:39;93472.78;;;24.58;34.35
22389;BME280;11362;48.102;11.620;2024-02-26T00:15:08;93474.81;;;24.57;34.46
22389;BME280;11362;48.102;11.620;2024-02-26T00:17:34;93474.47;;;24.55;34.48
22389;BME280;11362;48.102;11.620;2024-02-26T00:19:59;93481.25;;;24.54;34.43
22389;BME280;11362;48.102;11.620;2024-02-26T00:22:25;93485.91;;;24.57;34.57
22389;BME280;11362;48.102;11.620;2024-02-26T00:24:50;93477.25;;;24.55;34.39
22389;BME280;11362;48.102;11.620;2024-02-26T00:27:15;93482.47;;;24.53;34.42
22389;BME280;11362;48.102;11.620;2024-02-26T00:29:40;93486.50;;;24.52;34.45
22389;BME280;11362;48.102;11.620;2024-02-26T00:32:06;93470.63;;;24.53;34.56
22389;BME280;11362;48.102;11.620;2024-02-26T00:34:31;93476.94;;;24.53;34.54
22389;BME280;11362;48.102;11.620;2024-02-26T00:36:57;93469.84;;;24.52;34.39
22389;BME280;11362;48.102;11.620;2024-02-26T00:39:22;93451.03;;;24.47;34.49
22389;BME280;11362;48.102;11.620;2024-02-26T00:41:47;93469.06;;;24.52;34.41
22389;BME280;11362;48.102;11.620;2024-02-26T00:44:12;93468.31;;;24.51;34.47
22389;BME280;11362;48.102;11.620;2024-02-26T00:46:38;93467.06;;;24.52;34.65
22389;BME280;11362;48.102;11.620;2024-02-26T00:49:03;93459.97;;;24.51;34.25
22389;BME280;11362;48.102;11.620;2024-02-26T00:51:28;93462.75;;;24.51;34.95
22389;BME280;11362;48.102;11.620;2024-02-26T00:53:54;93459.97;;;24.51;34.49
22389;BME280;11362;48.102;11.620;2024-02-26T00:56:20;93465.53;;;24.51;34.62
22389;BME280;11362;48.102;11.620;2024-02-26T00:58:45;93458.13;;;24.48;34.56
22389;BME280;11362;48.102;11.620;2024-02-26T01:01:10;93455.06;;;24.46;34.56
22389;BME280;11362;48.102;11.620;2024-02-26T01:03:35;93452.28;;;24.46;34.48
22389;BME280;11362;48.102;11.620;2024-02-26T01:06:01;93452.72;;;24.45;34.54
22389;BME280;11362;48.102;11.620;2024-02-26T01:08:26;93457.81;;;24.46;34.45
22389;BME280;11362;48.102;11.620;2024-02-26T01:10:51;93453.50;;;24.45;34.41
22389;BME280;11362;48.102;11.620;2024-02-26T01:13:17;93452.28;;;24.46;34.44
22389;BME280;11362;48.102;11.620;2024-02-26T01:15:42;93454.28;;;24.46;34.49
22389;BME280;11362;48.102;11.620;2024-02-26T01:18:07;93450.75;;;24.45;34.42
22389;BME280;11362;48.102;11.620;2024-02-26T01:20:33;93458.28;;;24.45;34.29
22389;BME280;11362;48.102;11.620;2024-02-26T01:22:58;93448.41;;;24.44;34.42
22389;BME280;11362;48.102;11.620;2024-02-26T01:25:23;93453.50;;;24.45;34.36
22389;BME280;11362;48.102;11.620;2024-02-26T01:27:48;93450.75;;;24.45;34.41
22389;BME280;11362;48.102;11.620;2024-02-26T01:30:14;93443.66;;;24.44;34.26
22389;BME280;11362;48.102;11.620;2024-02-26T01:32:39;93454.28;;;24.46;34.20
22389;BME280;11362;48.102;11.620;2024-02-26T01:35:05;93443.19;;;24.46;34.37
22389;BME280;11362;48.102;11.620;2024-02-26T01:37:30;93448.75;;;24.46;34.42
22389;BME280;11362;48.102;11.620;2024-02-26T01:39:55;93446.72;;;24.46;34.38
22389;BME280;11362;48.102;11.620;2024-02-26T01:42:21;93439.94;;;24.47;34.23
22389;BME280;11362;48.102;11.620;2024-02-26T01:44:46;93449.78;;;24.48;34.40
22389;BME280;11362;48.102;11.620;2024-02-26T01:47:12;93443.03;;;24.49;34.45
22389;BME280;11362;48.102;11.620;2024-02-26T01:49:39;93447.81;;;24.49;34.38
22389;BME280;11362;48.102;11.620;2024-02-26T01:52:06;93447.81;;;24.49;34.29
22389;BME280;11362;48.102;11.620;2024-02-26T01:54:34;93455.06;;;24.46;34.31
22389;BME280;11362;48.102;11.620;2024-02-26T01:57:00;93449.03;;;24.48;34.17
22389;BME280;11362;48.102;11.620;2024-02-26T01:59:27;93449.50;;;24.46;34.16
22389;BME280;11362;48.102;11.620;2024-02-26T02:01:55;93443.19;;;24.46;34.21
22389;BME280;11362;48.102;11.620;2024-02-26T02:04:23;93441.19;;;24.46;34.31
22389;BME280;11362;48.102;11.620;2024-02-26T02:06:50;93432.41;;;24.48;34.32
22389;BME280;11362;48.102;11.620;2024-02-26T02:09:15;93427.31;;;24.46;33.93
22389;BME280;11362;48.102;11.620;2024-02-26T02:11:41;93427.59;;;24.48;34.29
22389;BME280;11362;48.102;11.620;2024-02-26T02:14:06;93430.84;;;24.47;34.20
22389;BME280;11362;48.102;11.620;2024-02-26T02:16:31;93418.22;;;24.46;34.19
22389;BME280;11362;48.102;11.620;2024-02-26T02:18:58;93420.22;;;24.45;34.20
22389;BME280;11362;48.102;11.620;2024-02-26T02:21:23;93412.66;;;24.46;34.17
22389;BME280;11362;48.102;11.620;2024-02-26T02:23:48;93411.88;;;24.45;34.29
22389;BME280;11362;48.102;11.620;2024-02-26T02:26:14;93414.66;;;24.45;34.14
22389;BME280;11362;48.102;11.620;2024-02-26T02:28:40;93406.50;;;24.42;34.09
22389;BME280;11362;48.102;11.620;2024-02-26T02:31:06;93415.44;;;24.46;34.08
22389;BME280;11362;48.102;11.620;2024-02-26T02:33:31;93414.66;;;24.45;34.04
22389;BME280;11362;48.102;11.620;2024-02-26T02:35:57;93414.66;;;24.45;34.13
22389;BME280;11362;48.102;11.620;2024-02-26T02:38:23;93413.13;;;24.44;34.23
22389;BME280;11362;48.102;11.620;2024-02-26T02:40:48;93413.13;;;24.44;33.86
22389;BME280;11362;48.102;11.620;2024-02-26T02:43:13;93418.69;;;24.44;34.02
22389;BME280;11362;48.102;11.620;2024-02-26T02:45:39;93415.91;;;24.44;33.93
22389;BME280;11362;48.102;11.620;2024-02-26T02:48:04;93417.91;;;24.44;33.94
22389;BME280;11362;48.102;11.620;2024-02-26T02:50:29;93421.47;;;24.44;33.96
22389;BME280;11362;48.102;11.620;2024-02-26T02:52:55;93407.91;;;24.37;33.93
22389;BME280;11362;48.102;11.620;2024-02-26T02:55:20;93420.66;;;24.44;33.79
22389;BME280;11362;48.102;11.620;2024-02-26T02:57:45;93422.69;;;24.43;33.95
22389;BME280;11362;48.102;11.620;2024-02-26T03:00:11;93427.00;;;24.44;34.02
22389;BME280;11362;48.102;11.620;2024-02-26T03:02:37;93423.44;;;24.44;33.90
22389;BME280;11362;48.102;11.620;2024-02-26T03:05:03;93420.50;;;24.47;33.77
22389;BME280;11362;48.102;11.620;2024-02-26T03:07:29;93417.44;;;24.45;33.62
22389;BME280;11362;48.102;11.620;2024-02-26T03:09:54;93413.88;;;24.45;33.82
22389;BME280;11362;48.102;11.620;2024-02-26T03:12:19;93415.13;;;24.44;33.98
22389;BME280;11362;48.102;11.620;2024-02-26T03:14:45;93409.13;;;24.45;33.83
22389;BME280;11362;48.102;11.620;2024-02-26T03:17:10;93407.28;;;24.42;33.76
22389;BME280;11362;48.102;11.620;2024-02-26T03:19:35;93406.78;;;24.44;33.43
22389;BME280;11362;48.102;11.620;2024-02-26T03:22:00;93410.34;;;24.44;33.72
22389;BME280;11362;48.102;11.620;2024-02-26T03:24:26;93402.03;;;24.44;33.78
22389;BME280;11362;48.102;11.620;2024-02-26T03:26:51;93389.41;;;24.43;33.80
22389;BME280;11362;48.102;11.620;2024-02-26T03:29:16;93413.13;;;24.44;33.80
22389;BME280;11362;48.102;11.620;2024-02-26T03:31:42;93405.56;;;24.45;33.70
22389;BME280;11362;48.102;11.620;2024-02-26T03:34:07;93403.28;;;24.43;33.79
22389;BME280;11362;48.102;11.620;2024-02-26T03:36:32;93412.34;;;24.44;33.88
22389;BME280;11362;48.102;11.620;2024-02-26T03:38:58;93411.28;;;24.41;33.71
22389;BME280;11362;48.102;11.620;2024-02-26T03:41:23;93412.84;;;24.42;33.66
22389;BME280;11362;48.102;11.620;2024-02-26T03:43:49;93414.38;;;24.43;33.90
22389;BME280;11362;48.102;11.620;2024-02-26T03:46:14;93415.59;;;24.42;33.64
22389;BME280;11362;48.102;11.620;2024-02-26T03:48:40;93414.38;;;24.43;33.69
22389;BME280;11362;48.102;11.620;2024-02-26T03:51:08;93417.91;;;24.44;33.61
22389;BME280;11362;48.102;11.620;2024-02-26T03:53:33;93410.34;;;24.44;33.53
22389;BME280;11362;48.102;11.620;2024-02-26T03:56:03;93412.34;;;24.44;33.55
22389;BME280;11362;48.102;11.620;2024-02-26T03:58:28;93406.03;;;24.43;33.56
22389;BME280;11362;48.102;11.620;2024-02-26T04:00:53;93408.34;;;24.45;33.50
22389;BME280;11362;48.102;11.620;2024-02-26T04:03:19;93400.50;;;24.43;33.46
22389;BME280;11362;48.102;11.620;2024-02-26T04:05:44;93405.72;;;24.41;33.53
22389;BME280;11362;48.102;11.620;2024-02-26T04:08:09;93393.41;;;24.42;33.52
22389;BME280;11362;48.102;11.620;2024-02-26T04:10:34;93395.69;;;24.44;33.50
22389;BME280;11362;48.102;11.620;2024-02-26T04:13:00;93406.34;;;24.45;33.54
22389;BME280;11362;48.102;11.620;2024-02-26T04:15:25;93396.19;;;24.42;33.61
22389;BME280;11362;48.102;11.620;2024-02-26T04:17:51;93392.91;;;24.44;33.58
22389;BME280;11362;48.102;11.620;2024-02-26T04:20:16;93406.03;;;24.43;33.46
22389;BME280;11362;48.102;11.620;2024-02-26T04:22:41;93398.00;;;24.45;33.42
22389;BME280;11362;48.102;11.620;2024-02-26T04:25:07;93409.13;;;24.45;33.54
22389;BME280;11362;48.102;11.620;2024-02-26T04:27:32;93400.00;;;24.45;33.48
22389;BME280;11362;48.102;11.620;2024-02-26T04:29:58;93408.34;;;24.45;33.30
22389;BME280;11362;48.102;11.620;2024-02-26T04:32:23;93413.88;;;24.45;33.58
22389;BME280;11362;48.102;11.620;2024-02-26T04:34:48;93403.28;;;24.43;33.35
22389;BME280;11362;48.102;11.620;2024-02-26T04:37:14;93404.34;;;24.46;33.43
22389;BME280;11362;48.102;11.620;2024-02-26T04:39:39;93415.44;;;24.46;33.27
22389;BME280;11362;48.102;11.620;2024-02-26T04:42:04;93413.88;;;24.45;33.40
22389;BME280;11362;48.102;11.620;2024-02-26T04:44:30;93413.88;;;24.45;33.37
22389;BME280;11362;48.102;11.620;2024-02-26T04:46:55;93418.50;;;24.48;33.26
22389;BME280;11362;48.102;11.620;2024-02-26T04:49:20;93417.72;;;24.47;33.30
22389;BME280;11362;48.102;11.620;2024-02-26T04:51:45;93388.00;;;24.48;33.23
22389;BME280;11362;48.102;11.620;2024-02-26T04:54:11;93386.13;;;24.45;33.28
22389;BME280;11362;48.102;11.620;2024-02-26T04:56:36;93388.44;;;24.46;33.40
22389;BME280;11362;48.102;11.620;2024-02-26T04:59:01;93389.97;;;24.47;33.28
22389;BME280;11362;48.102;11.620;2024-02-26T05:01:27;93380.56;;;24.45;33.41
22389;BME280;11362;48.102;11.620;2024-02-26T05:03:52;93400.00;;;24.45;33.32
22389;BME280;11362;48.102;11.620;2024-02-26T05:06:18;93393.84;;;24.50;33.24
22389;BME280;11362;48.102;11.620;2024-02-26T05:08:43;93396.31;;;24.48;33.13
22389;BME280;11362;48.102;11.620;2024-02-26T05:11:08;93388.78;;;24.39;33.17
22389;BME280;11362;48.102;11.620;2024-02-26T05:13:34;93394.63;;;24.50;33.25
22389;BME280;11362;48.102;11.620;2024-02-26T05:15:59;93381.19;;;24.49;33.13
22389;BME280;11362;48.102;11.620;2024-02-26T05:18:24;93388.44;;;24.46;33.11
22389;BME280;11362;48.102;11.620;2024-02-26T05:20:49;93391.50;;;24.48;33.12
22389;BME280;11362;48.102;11.620;2024-02-26T05:23:15;93387.53;;;24.49;33.01
22389;BME280;11362;48.102;11.620;2024-02-26T05:25:40;93398.34;;;24.38;33.17
22389;BME280;11362;48.102;11.620;2024-02-26T05:28:05;93398.31;;;24.47;33.20
22389;BME280;11362;48.102;11.620;2024-02-26T05:30:31;93406.34;;;24.45;33.01
22389;BME280;11362;48.102;11.620;2024-02-26T05:32:56;93400.94;;;24.42;32.95
22389;BME280;11362;48.102;11.620;2024-02-26T05:35:21;93411.88;;;24.45;33.10
22389;BME280;11362;48.102;11.620;2024-02-26T05:37:47;93405.72;;;24.50;33.02
22389;BME280;11362;48.102;11.620;2024-02-26T05:40:12;93404.03;;;24.44;32.92
22389;BME280;11362;48.102;11.620;2024-02-26T05:42:38;93405.88;;;24.47;32.95
22389;BME280;11362;48.102;11.620;2024-02-26T05:45:03;93405.72;;;24.50;33.04
22389;BME280;11362;48.102;11.620;2024-02-26T05:47:29;93404.81;;;24.44;32.80
22389;BME280;11362;48.102;11.620;2024-02-26T05:49:54;93407.88;;;24.46;32.90
22389;BME280;11362;48.102;11.620;2024-02-26T05:52:19;93417.16;;;24.43;32.79
22389;BME280;11362;48.102;11.620;2024-02-26T05:54:45;93415.91;;;24.44;32.94
22389;BME280;11362;48.102;11.620;2024-02-26T05:57:10;93406.53;;;24.33;32.87
22389;BME280;11362;48.102;11.620;2024-02-26T05:59:35;93417.75;;;24.38;32.89
22389;BME280;11362;48.102;11.620;2024-02-26T06:02:00;93428.53;;;24.45;32.18
22389;BME280;11362;48.102;11.620;2024-02-26T06:04:26;93419.91;;;24.43;32.67
22389;BME280;11362;48.102;11.620;2024-02-26T06:06:51;93419.59;;;24.41;32.58
22389;BME280;11362;48.102;11.620;2024-02-26T06:09:16;93432.09;;;24.46;32.56
22389;BME280;11362;48.102;11.620;2024-02-26T06:11:42;93429.50;;;24.42;32.42
22389;BME280;11362;48.102;11.620;2024-02-26T06:14:07;93410.56;;;24.32;32.82
22389;BME280;11362;48.102;11.620;2024-02-26T06:16:32;93428.69;;;24.42;32.42
22389;BME280;11362;48.102;11.620;2024-02-26T06:18:58;93438.25;;;24.50;32.39
22389;BME280;11362;48.102;11.620;2024-02-26T06:21:24;93443.03;;;24.49;32.34
22389;BME280;11362;48.102;11.620;2024-02-26T06:23:49;93451.38;;;24.49;32.27
22389;BME280;11362;48.102;11.620;2024-02-26T06:26:14;93441.03;;;24.41;32.52
22389;BME280;11362;48.102;11.620;2024-02-26T06:28:40;93446.13;;;24.42;32.69
22389;BME280;11362;48.102;11.620;2024-02-26T06:31:05;93454.47;;;24.42;32.73
22389;BME280;11362;48.102;11.620;2024-02-26T06:33:30;93458.44;;;24.41;32.64
22389;BME280;11362;48.102;11.620;2024-02-26T06:35:55;93464.31;;;24.43;32.52
22389;BME280;11362;48.102;11.620;2024-02-26T06:38:21;93449.53;;;24.37;32.54
22389;BME280;11362;48.102;11.620;2024-02-26T06:40:46;93474.19;;;24.44;32.52
22389;BME280;11362;48.102;11.620;2024-02-26T06:43:11;93479.09;;;24.40;32.42
22389;BME280;11362;48.102;11.620;2024-02-26T06:45:36;93480.03;;;24.46;32.41
22389;BME280;11362;48.102;11.620;2024-02-26T06:48:02;93487.44;;;24.49;32.24
22389;BME280;11362;48.102;11.620;2024-02-26T06:50:27;93484.19;;;24.51;32.02
22389;BME280;11362;48.102;11.620;2024-02-26T06:52:53;93493.16;;;24.46;32.49
22389;BME280;11362;48.102;11.620;2024-02-26T06:55:18;93502.22;;;24.46;32.67
22389;BME280;11362;48.102;11.620;2024-02-26T06:57:43;93506.41;;;24.42;32.79
22389;BME280;11362;48.102;11.620;2024-02-26T07:00:09;93512.25;;;24.44;33.07
22389;BME280;11362;48.102;11.620;2024-02-26T07:02:35;93516.88;;;24.47;32.91
22389;BME280;11362;48.102;11.620;2024-02-26T07:05:00;93511.34;;;24.47;32.81
22389;BME280;11362;48.102;11.620;2024-02-26T07:07:25;93511.34;;;24.47;32.97
22389;BME280;11362;48.102;11.620;2024-02-26T07:09:51;93508.88;;;24.49;33.21
22389;BME280;11362;48.102;11.620;2024-02-26T07:12:16;93509.66;;;24.49;33.39
22389;BME280;11362;48.102;11.620;2024-02-26T07:14:41;93477.88;;;24.50;33.40
22389;BME280;11362;48.102;11.620;2024-02-26T07:17:07;93478.63;;;24.51;33.57
22389;BME280;11362;48.102;11.620;2024-02-26T07:19:32;93476.63;;;24.51;33.59
22389;BME280;11362;48.102;11.620;2024-02-26T07:21:58;93513.00;;;24.53;33.64
22389;BME280;11362;48.102;11.620;2024-02-26T07:24:23;93483.25;;;24.54;33.48
22389;BME280;11362;48.102;11.620;2024-02-26T07:26:48;93482.81;;;24.55;33.61
22389;BME280;11362;48.102;11.620;2024-02-26T07:29:13;93482.47;;;24.53;33.63
22389;BME280;11362;48.102;11.620;2024-02-26T07:31:39;93484.03;;;24.54;33.77
22389;BME280;11362;48.102;11.620;2024-02-26T07:34:04;93478.47;;;24.54;33.70
22389;BME280;11362;48.102;11.620;2024-02-26T07:36:29;93476.47;;;24.55;33.77
22389;BME280;11362;48.102;11.620;2024-02-26T07:38:55;93487.75;;;24.51;33.58
22389;BME280;11362;48.102;11.620;2024-02-26T07:41:20;93502.53;;;24.48;33.74
22389;BME280;11362;48.102;11.620;2024-02-26T07:43:45;93504.09;;;24.49;33.91
22389;BME280;11362;48.102;11.620;2024-02-26T07:46:11;93512.09;;;24.47;33.84
22389;BME280;11362;48.102;11.620;2024-02-26T07:48:37;93510.41;;;24.50;34.41
22389;BME280;11362;48.102;11.620;2024-02-26T07:51:03;93522.75;;;24.49;33.80
22389;BME280;11362;48.102;11.620;2024-02-26T07:53:29;93537.88;;;24.57;34.05
22389;BME280;11362;48.102;11.620;2024-02-26T07:55:54;93530.31;;;24.57;34.01
22389;BME280;11362;48.102;11.620;2024-02-26T07:58:19;93568.41;;;24.57;34.10
22389;BME280;11362;48.102;11.620;2024-02-26T08:00:45;93570.25;;;24.60;33.87
22389;BME280;11362;48.102;11.620;2024-02-26T08:03:10;93573.78;;;24.51;33.29
22389;BME280;11362;48.102;11.620;2024-02-26T08:05:35;93573.63;;;24.46;32.40
22389;BME280;11362;48.102;11.620;2024-02-26T08:08:00;93569.78;;;24.43;30.59
22389;BME280;11362;48.102;11.620;2024-02-26T08:10:26;93567.91;;;24.40;29.97
22389;BME280;11362;48.102;11.620;2024-02-26T08:12:51;93515.19;;;24.31;29.34
22389;BME280;11362;48.102;11.620;2024-02-26T08:15:16;93471.91;;;24.25;29.19
22389;BME280;11362;48.102;11.620;2024-02-26T08:17:41;93471.59;;;24.32;29.99
22389;BME280;11362;48.102;11.620;2024-02-26T08:20:07;93469.41;;;24.36;30.06
22389;BME280;11362;48.102;11.620;2024-02-26T08:22:32;93502.25;;;24.28;30.45
22389;BME280;11362;48.102;11.620;2024-02-26T08:24:58;93505.19;;;24.34;30.30
22389;BME280;11362;48.102;11.620;2024-02-26T08:27:23;93507.81;;;24.37;30.55
22389;BME280;11362;48.102;11.620;2024-02-26T08:29:48;93538.63;;;24.39;30.82
22389;BME280;11362;48.102;11.620;2024-02-26T08:32:14;93531.53;;;24.38;31.04
22389;BME280;11362;48.102;11.620;2024-02-26T08:34:39;93524.59;;;24.43;31.00
22389;BME280;11362;48.102;11.620;2024-02-26T08:37:05;93536.47;;;24.43;31.30
22389;BME280;11362;48.102;11.620;2024-02-26T08:39:31;93541.53;;;24.45;31.37
22389;BME280;11362;48.102;11.620;2024-02-26T08:41:56;93546.34;;;24.44;31.32
22389;BME280;11362;48.102;11.620;2024-02-26T08:44:21;93526.44;;;24.28;31.54
22389;BME280;11362;48.102;11.620;2024-02-26T08:46:46;93554.22;;;24.46;31.44
22389;BME280;11362;48.102;11.620;2024-02-26T08:49:12;93558.69;;;24.43;31.48
22389;BME280;11362;48.102;11.620;2024-02-26T08:51:43;93564.97;;;24.44;31.60
22389;BME280;11362;48.102;11.620;2024-02-26T08:54:09;93555.91;;;24.43;31.47
22389;BME280;11362;48.102;11.620;2024-02-26T08:56:34;93548.81;;;24.42;31.58
22389;BME280;11362;48.102;11.620;2024-02-26T08:58:59;93553.13;;;24.43;31.60
22389;BME280;11362;48.102;11.620;2024-02-26T09:01:24;93548.19;;;24.38;31.74
22389;BME280;11362;48.102;11.620;2024-02-26T09:03:50;93557.59;;;24.41;31.63
22389;BME280;11362;48.102;11.620;2024-02-26T09:06:15;93558.34;;;24.41;31.55
22389;BME280;11362;48.102;11.620;2024-02-26T09:08:40;93561.44;;;24.43;31.64
22389;BME280;11362;48.102;11.620;2024-02-26T09:11:06;93562.69;;;24.42;31.63
22389;BME280;11362;48.102;11.620;2024-02-26T09:13:31;93554.66;;;24.44;31.72
22389;BME280;11362;48.102;11.620;2024-02-26T09:15:56;93557.44;;;24.44;31.84
22389;BME280;11362;48.102;11.620;2024-02-26T09:18:21;93548.81;;;24.42;31.59
22389;BME280;11362;48.102;11.620;2024-02-26T09:20:47;93559.44;;;24.44;31.72
22389;BME280;11362;48.102;11.620;2024-02-26T09:23:12;93565.75;;;24.44;31.56
22389;BME280;11362;48.102;11.620;2024-02-26T09:25:38;93561.75;;;24.45;31.76
22389;BME280;11362;48.102;11.620;2024-02-26T09:28:03;93560.50;;;24.46;31.69
22389;BME280;11362;48.102;11.620;2024-02-26T09:30:29;93560.50;;;24.46;31.71
22389;BME280;11362;48.102;11.620;2024-02-26T09:32:54;93554.97;;;24.46;31.57
22389;BME280;11362;48.102;11.620;2024-02-26T09:35:19;93544.97;;;24.40;31.93
22389;BME280;11362;48.102;11.620;2024-02-26T09:37:45;93561.28;;;24.47;31.73
22389;BME280;11362;48.102;11.620;2024-02-26T09:40:10;93556.19;;;24.45;31.71
22389;BME280;11362;48.102;11.620;2024-02-26T09:42:36;93556.97;;;24.46;31.76
22389;BME280;11362;48.102;11.620;2024-02-26T09:45:05;93556.81;;;24.49;31.72
22389;BME280;11362;48.102;11.620;2024-02-26T09:47:31;93557.13;;;24.51;31.64
22389;BME280;11362;48.102;11.620;2024-02-26T09:49:56;93550.03;;;24.50;31.76
22389;BME280;11362;48.102;11.620;2024-02-26T09:52:25;93545.88;;;24.55;31.66
22389;BME280;11362;48.102;11.620;2024-02-26T09:54:50;93551.28;;;24.58;31.48
22389;BME280;11362;48.102;11.620;2024-02-26T09:57:16;93555.31;;;24.57;31.64
22389;BME280;11362;48.102;11.620;2024-02-26T09:59:42;93555.31;;;24.57;31.77
22389;BME280;11362;48.102;11.620;2024-02-26T10:02:10;93545.56;;;24.53;31.63
22389;BME280;11362;48.102;11.620;2024-02-26T10:04:37;93558.53;;;24.56;31.34
22389;BME280;11362;48.102;11.620;2024-02-26T10:07:03;93543.09;;;24.55;31.55
22389;BME280;11362;48.102;11.620;2024-02-26T10:09:30;93560.19;;;24.53;31.53
22389;BME280;11362;48.102;11.620;2024-02-26T10:11:57;93501.63;;;24.51;31.71
22389;BME280;11362;48.102;11.620;2024-02-26T10:14:22;93510.25;;;24.53;31.80
22389;BME280;11362;48.102;11.620;2024-02-26T10:16:47;93509.50;;;24.53;31.76
22389;BME280;11362;48.102;11.620;2024-02-26T10:19:28;93503.16;;;24.52;31.77
22389;BME280;11362;48.102;11.620;2024-02-26T10:21:57;93514.88;;;24.56;31.75
22389;BME280;11362;48.102;11.620;2024-02-26T10:24:22;93510.09;;;24.57;31.89
22389;BME280;11362;48.102;11.620;2024-02-26T10:26:48;93503.94;;;24.53;31.83
22389;BME280;11362;48.102;11.620;2024-02-26T10:29:14;93512.44;;;24.58;31.90
22389;BME280;11362;48.102;11.620;2024-02-26T10:31:42;93508.13;;;24.57;32.20
22389;BME280;11362;48.102;11.620;2024-02-26T10:34:07;93501.63;;;24.60;31.89
22389;BME280;11362;48.102;11.620;2024-02-26T10:36:33;93496.84;;;24.61;31.85
22389;BME280;11362;48.102;11.620;2024-02-26T10:39:01;93494.06;;;24.61;31.96
22389;BME280;11362;48.102;11.620;2024-02-26T10:41:27;93490.81;;;24.62;31.87
22389;BME280;11362;48.102;11.620;2024-02-26T10:43:54;93486.78;;;24.63;32.01
22389;BME280;11362;48.102;11.620;2024-02-26T10:46:19;93482.81;;;24.64;31.93
22389;BME280;11362;48.102;11.620;2024-02-26T10:48:50;93474.16;;;24.62;31.89
22389;BME280;11362;48.102;11.620;2024-02-26T10:51:16;93483.28;;;24.63;31.92
22389;BME280;11362;48.102;11.620;2024-02-26T10:53:43;93489.13;;;24.65;31.95
22389;BME280;11362;48.102;11.620;2024-02-26T10:56:11;93483.28;;;24.63;31.83
22389;BME280;11362;48.102;11.620;2024-02-26T10:58:37;93489.13;;;24.65;31.97
22389;BME280;11362;48.102;11.620;2024-02-26T11:01:03;93495.44;;;24.65;31.99
22389;BME280;11362;48.102;11.620;2024-02-26T11:03:29;93504.53;;;24.66;31.94
22389;BME280;11362;48.102;11.620;2024-02-26T11:05:57;93512.88;;;24.66;31.93
22389;BME280;11362;48.102;11.620;2024-02-26T11:08:24;93510.41;;;24.68;31.81
22389;BME280;11362;48.102;11.620;2024-02-26T11:10:53;93512.69;;;24.69;31.92
22389;BME280;11362;48.102;11.620;2024-02-26T11:13:19;93517.78;;;24.71;31.78
22389;BME280;11362;48.102;11.620;2024-02-26T11:15:48;93512.88;;;24.66;32.07
22389;BME280;11362;48.102;11.620;2024-02-26T11:18:18;93525.81;;;24.69;32.02
22389;BME280;11362;48.102;11.620;2024-02-26T11:20:44;93524.44;;;24.73;31.80
22389;BME280;11362;48.102;11.620;2024-02-26T11:23:10;93531.50;;;24.74;31.77
22389;BME280;11362;48.102;11.620;2024-02-26T11:25:36;93534.75;;;24.73;32.00
22389;BME280;11362;48.102;11.620;2024-02-26T11:28:04;93524.13;;;24.71;31.88
22389;BME280;11362;48.102;11.620;2024-02-26T11:30:33;93525.66;;;24.72;32.04
22389;BME280;11362;48.102;11.620;2024-02-26T11:33:00;93531.69;;;24.71;32.12
22389;BME280;11362;48.102;11.620;2024-02-26T11:35:25;93529.19;;;24.73;32.05
22389;BME280;11362;48.102;11.620;2024-02-26T11:37:53;93519.03;;;24.70;31.98
22389;BME280;11362;48.102;11.620;2024-02-26T11:40:18;93518.88;;;24.73;31.92
22389;BME280;11362;48.102;11.620;2024-02-26T11:42:44;93513.31;;;24.73;31.74
22389;BME280;11362;48.102;11.620;2024-02-26T11:48:03;93512.38;;;24.76;31.91
22389;BME280;11362;48.102;11.620;2024-02-26T11:50:36;93510.69;;;24.79;31.62
22389;BME280;11362;48.102;11.620;2024-02-26T11:53:24;93511.47;;;24.79;31.52
22389;BME280;11362;48.102;11.620;2024-02-26T11:58:43;93503.88;;;24.80;31.63
22389;BME280;11362;48.102;11.620;2024-02-26T12:04:06;93501.28;;;24.76;31.26
22389;BME280;11362;48.102;11.620;2024-02-26T12:06:40;93533.97;;;24.81;31.51
22389;BME280;11362;48.102;11.620;2024-02-26T12:09:07;93533.50;;;24.83;31.27
22389;BME280;11362;48.102;11.620;2024-02-26T12:11:32;93533.03;;;24.84;31.63
22389;BME280;11362;48.102;11.620;2024-02-26T12:13:57;93537.38;;;24.85;31.33
22389;BME280;11362;48.102;11.620;2024-02-26T12:16:38;93518.22;;;24.87;31.47
22389;BME280;11362;48.102;11.620;2024-02-26T12:19:05;93502.94;;;24.92;31.31
22389;BME280;11362;48.102;11.620;2024-02-26T12:21:33;93498.44;;;24.94;31.23
22389;BME280;11362;48.102;11.620;2024-02-26T12:24:07;93492.00;;;24.88;31.54
22389;BME280;11362;48.102;11.620;2024-02-26T12:26:35;93492.94;;;24.85;31.50
22389;BME280;11362;48.102;11.620;2024-02-26T12:29:00;93497.41;;;24.83;31.60
22389;BME280;11362;48.102;11.620;2024-02-26T12:31:26;93495.88;;;24.82;31.49
22389;BME280;11362;48.102;11.620;2024-02-26T12:33:52;93510.31;;;24.95;31.09
22389;BME280;11362;48.102;11.620;2024-02-26T12:36:17;93522.22;;;24.95;31.35
22389;BME280;11362;48.102;11.620;2024-02-26T12:38:42;93531.13;;;24.99;31.72
22389;BME280;11362;48.102;11.620;2024-02-26T12:41:08;93532.38;;;24.98;31.71
22389;BME280;11362;48.102;11.620;2024-02-26T12:43:33;93545.50;;;24.98;32.15
22389;BME280;11362;48.102;11.620;2024-02-26T12:45:58;93548.13;;;24.92;32.15
22389;BME280;11362;48.102;11.620;2024-02-26T12:48:28;93529.63;;;24.89;32.20
22389;BME280;11362;48.102;11.620;2024-02-26T12:50:54;93532.41;;;24.89;32.19